createdAt,value
2023-02-28T00:00:48.012Z,-2.33
2023-02-28T00:03:15.600Z,-2.41
2023-02-28T00:05:43.115Z,-2.45
2023-02-28T00:08:10.917Z,-2.40
2023-02-28T00:10:38.274Z,-2.37
2023-02-28T00:13:07.662Z,-2.46
2023-02-28T00:15:35.232Z,-2.43
2023-02-28T00:18:03.203Z,-2.41
2023-02-28T00:20:30.666Z,-2.44
2023-02-28T00:22:58.024Z,-2.45
2023-02-28T00:25:26.608Z,-2.44
2023-02-28T00:27:54.306Z,-2.45
2023-02-28T00:30:23.956Z,-2.53
2023-02-28T00:32:52.296Z,-2.46
2023-02-28T00:35:19.878Z,-2.52
2023-02-28T00:37:47.233Z,-2.49
2023-02-28T00:40:14.589Z,-2.60
2023-02-28T00:42:42.001Z,-2.63
2023-02-28T00:45:09.888Z,-2.59
2023-02-28T00:47:39.199Z,-2.65
2023-02-28T00:50:07.868Z,-2.61
2023-02-28T00:52:35.300Z,-2.71
2023-02-28T00:55:02.644Z,-2.75
2023-02-28T00:57:30.058Z,-2.63
2023-02-28T00:59:57.388Z,-2.66
2023-02-28T01:02:24.760Z,-2.68
2023-02-28T01:04:53.838Z,-2.77
2023-02-28T01:07:21.241Z,-2.76
2023-02-28T01:09:48.594Z,-2.74
2023-02-28T01:12:16.057Z,-2.76
2023-02-28T01:14:43.625Z,-2.82
2023-02-28T01:17:11.438Z,-2.78
2023-02-28T01:19:38.790Z,-2.85
2023-02-28T01:22:06.955Z,-2.86
2023-02-28T01:24:35.780Z,-2.94
2023-02-28T01:27:03.228Z,-2.86
2023-02-28T01:29:30.596Z,-2.89
2023-02-28T01:32:00.412Z,-2.89
2023-02-28T01:34:27.997Z,-2.89
2023-02-28T01:36:55.417Z,-2.93
2023-02-28T01:39:22.792Z,-2.93
2023-02-28T01:41:51.105Z,-2.93
2023-02-28T01:44:56.666Z,-2.83
2023-02-28T01:47:25.868Z,-2.86
2023-02-28T01:49:53.563Z,-2.89
2023-02-28T01:52:20.971Z,-2.89
2023-02-28T01:54:53.791Z,-2.81
2023-02-28T01:57:25.585Z,-2.82
2023-02-28T01:59:59.505Z,-2.77
2023-02-28T02:02:27.788Z,-2.82
2023-02-28T02:05:22.447Z,-2.81
2023-02-28T02:07:56.272Z,-2.79
2023-02-28T02:10:34.905Z,-2.78
2023-02-28T02:13:25.547Z,-2.76
2023-02-28T02:16:02.547Z,-2.79
2023-02-28T02:18:38.440Z,-2.75
2023-02-28T02:21:11.584Z,-2.68
2023-02-28T02:24:03.028Z,-2.69
2023-02-28T02:26:48.436Z,-2.64
2023-02-28T02:29:25.177Z,-2.61
2023-02-28T02:31:55.825Z,-2.61
2023-02-28T02:34:26.286Z,-2.59
2023-02-28T02:37:00.435Z,-2.60
2023-02-28T02:39:40.192Z,-2.56
2023-02-28T02:42:17.872Z,-2.56
2023-02-28T02:44:49.494Z,-2.56
2023-02-28T02:47:21.651Z,-2.54
2023-02-28T02:49:52.566Z,-2.56
2023-02-28T02:52:23.377Z,-2.56
2023-02-28T02:54:56.374Z,-2.53
2023-02-28T02:57:43.756Z,-2.56
2023-02-28T03:00:11.909Z,-2.55
2023-02-28T03:02:40.277Z,-2.56
2023-02-28T03:05:14.345Z,-2.53
2023-02-28T03:07:41.794Z,-2.57
2023-02-28T03:10:28.249Z,-2.53
2023-02-28T03:13:21.399Z,-2.54
2023-02-28T03:15:56.350Z,-2.50
2023-02-28T03:19:02.259Z,-2.52
2023-02-28T03:21:40.705Z,-2.49
2023-02-28T03:24:26.132Z,-2.47
2023-02-28T03:27:01.572Z,-2.47
2023-02-28T03:29:45.128Z,-2.46
2023-02-28T03:32:59.912Z,-2.48
2023-02-28T03:35:32.295Z,-2.47
2023-02-28T03:38:26.680Z,-2.45
2023-02-28T03:41:00.843Z,-2.41
2023-02-28T03:43:31.196Z,-2.36
2023-02-28T03:46:00.424Z,-2.38
2023-02-28T03:48:37.146Z,-2.44
2023-02-28T03:51:05.279Z,-2.40
2023-02-28T03:53:43.490Z,-2.35
2023-02-28T03:56:27.515Z,-2.32
2023-02-28T03:59:03.682Z,-2.30
2023-02-28T04:01:37.387Z,-2.33
2023-02-28T04:04:05.911Z,-2.31
2023-02-28T04:06:34.443Z,-2.34
2023-02-28T04:09:02.167Z,-2.34
2023-02-28T04:11:38.619Z,-2.32
2023-02-28T04:14:06.578Z,-2.33
2023-02-28T04:16:36.054Z,-2.28
2023-02-28T04:19:08.232Z,-2.26
2023-02-28T04:21:58.539Z,-2.24
2023-02-28T04:24:28.185Z,-2.26
2023-02-28T04:26:57.759Z,-2.26
2023-02-28T04:29:29.979Z,-2.26
2023-02-28T04:32:01.290Z,-2.22
2023-02-28T04:34:30.587Z,-2.31
2023-02-28T04:37:14.493Z,-2.23
2023-02-28T04:39:43.052Z,-2.24
2023-02-28T04:42:10.894Z,-2.21
2023-02-28T04:44:38.236Z,-2.23
2023-02-28T04:47:05.726Z,-2.20
2023-02-28T04:49:33.335Z,-2.18
2023-02-28T04:52:00.693Z,-2.15
2023-02-28T04:54:29.341Z,-2.14
2023-02-28T04:56:56.907Z,-2.12
2023-02-28T04:59:24.252Z,-2.11
2023-02-28T05:01:51.704Z,-2.13
2023-02-28T05:04:19.143Z,-2.14
2023-02-28T05:06:46.609Z,-2.11
2023-02-28T05:09:14.185Z,-2.08
2023-02-28T05:11:42.017Z,-2.10
2023-02-28T05:14:13.476Z,-2.11
2023-02-28T05:16:40.989Z,-2.11
2023-02-28T05:19:08.442Z,-2.12
2023-02-28T05:21:58.561Z,-2.10
2023-02-28T05:24:26.004Z,-2.11
2023-02-28T05:26:54.671Z,-2.08
2023-02-28T05:29:22.465Z,-1.99
2023-02-28T05:31:49.947Z,-2.06
2023-02-28T05:34:17.456Z,-2.01
2023-02-28T05:36:45.094Z,-2.08
2023-02-28T05:39:13.810Z,-2.06
2023-02-28T05:41:43.003Z,-2.06
2023-02-28T05:44:11.146Z,-2.04
2023-02-28T05:46:39.381Z,-2.03
2023-02-28T05:49:06.883Z,-2.03
2023-02-28T05:51:35.244Z,-2.01
2023-02-28T05:54:03.056Z,-2.01
2023-02-28T05:56:31.037Z,-2.06
2023-02-28T05:58:58.613Z,-2.06
2023-02-28T06:01:32.592Z,-2.01
2023-02-28T06:04:01.894Z,-2.04
2023-02-28T06:06:30.515Z,-2.01
2023-02-28T06:08:58.374Z,-2.03
2023-02-28T06:11:29.380Z,-2.02
2023-02-28T06:13:58.613Z,-2.06
2023-02-28T06:16:26.486Z,-2.06
2023-02-28T06:18:56.559Z,-2.04
2023-02-28T06:21:24.416Z,-2.00
2023-02-28T06:23:51.932Z,-2.03
2023-02-28T06:26:19.879Z,-2.08
2023-02-28T06:28:47.896Z,-2.01
2023-02-28T06:31:17.673Z,-2.01
2023-02-28T06:33:46.424Z,-2.01
2023-02-28T06:36:15.603Z,-1.98
2023-02-28T06:38:43.513Z,-1.97
2023-02-28T06:41:11.484Z,-1.98
2023-02-28T06:43:41.369Z,-1.97
2023-02-28T06:46:11.740Z,-1.99
2023-02-28T06:48:39.152Z,-2.01
2023-02-28T06:51:23.049Z,-1.95
2023-02-28T06:53:50.736Z,-1.94
2023-02-28T06:56:19.248Z,-1.96
2023-02-28T06:58:51.555Z,-1.91
2023-02-28T07:01:19.932Z,-1.85
2023-02-28T07:03:47.584Z,-1.93
2023-02-28T07:06:15.010Z,-1.90
2023-02-28T07:08:42.373Z,-1.92
2023-02-28T07:11:09.774Z,-1.88
2023-02-28T07:13:37.647Z,-1.90
2023-02-28T07:16:07.027Z,-1.85
2023-02-28T07:18:34.800Z,-1.76
2023-02-28T07:21:07.165Z,-1.52
2023-02-28T07:23:34.812Z,-1.59
2023-02-28T07:26:02.191Z,-1.68
2023-02-28T07:28:29.828Z,-1.65
2023-02-28T07:30:57.207Z,-1.62
2023-02-28T07:33:24.973Z,-1.49
2023-02-28T07:35:52.389Z,-1.48
2023-02-28T07:38:19.814Z,-1.42
2023-02-28T07:40:47.212Z,-1.42
2023-02-28T07:43:14.633Z,-1.54
2023-02-28T07:45:42.034Z,-1.37
2023-02-28T07:48:11.000Z,-1.34
2023-02-28T07:50:38.834Z,-1.33
2023-02-28T07:53:06.279Z,-1.33
2023-02-28T07:55:33.631Z,-1.47
2023-02-28T07:58:01.618Z,-1.10
2023-02-28T08:00:30.050Z,-1.26
2023-02-28T08:02:57.509Z,-1.09
2023-02-28T08:05:24.906Z,-1.09
2023-02-28T08:07:52.340Z,-1.03
2023-02-28T08:10:19.756Z,-1.13
2023-02-28T08:12:47.110Z,-1.27
2023-02-28T08:15:14.487Z,-1.24
2023-02-28T08:17:41.820Z,-1.12
2023-02-28T08:20:11.289Z,-0.92
2023-02-28T08:22:38.685Z,-0.98
2023-02-28T08:25:08.470Z,-0.52
2023-02-28T08:27:36.372Z,0.14
2023-02-28T08:30:04.609Z,0.57
2023-02-28T08:32:33.099Z,0.34
2023-02-28T08:35:00.556Z,0.59
2023-02-28T08:37:27.846Z,0.24
2023-02-28T08:39:56.552Z,0.51
2023-02-28T08:42:24.651Z,0.74
2023-02-28T08:44:52.079Z,0.84
2023-02-28T08:47:19.672Z,0.98
2023-02-28T08:49:47.276Z,1.23
2023-02-28T08:52:14.679Z,1.26
2023-02-28T08:54:42.007Z,1.62
2023-02-28T08:57:09.421Z,1.88
2023-02-28T08:59:36.776Z,1.58
2023-02-28T09:02:04.331Z,1.68
2023-02-28T09:04:32.033Z,1.83
2023-02-28T09:06:59.390Z,2.39
2023-02-28T09:09:26.751Z,2.05
2023-02-28T09:11:56.113Z,1.89
2023-02-28T09:14:23.467Z,2.06
2023-02-28T09:16:51.021Z,2.51
2023-02-28T09:19:18.405Z,2.19
2023-02-28T09:21:45.750Z,2.19
2023-02-28T09:24:15.324Z,1.82
2023-02-28T09:26:55.900Z,1.43
2023-02-28T09:29:30.328Z,1.50
2023-02-28T09:31:59.874Z,1.63
2023-02-28T09:34:28.351Z,2.35
2023-02-28T09:36:56.118Z,2.17
2023-02-28T09:39:24.709Z,2.28
2023-02-28T09:41:53.466Z,2.96
2023-02-28T09:44:37.317Z,3.12
2023-02-28T09:47:31.766Z,2.26
2023-02-28T09:50:17.084Z,2.24
2023-02-28T09:52:45.009Z,2.06
2023-02-28T09:55:35.261Z,2.18
2023-02-28T09:58:19.592Z,2.13
2023-02-28T10:01:08.000Z,1.98
2023-02-28T10:03:47.740Z,3.16
2023-02-28T10:06:19.340Z,2.62
2023-02-28T10:09:05.759Z,3.35
2023-02-28T10:11:35.308Z,4.31
2023-02-28T10:14:19.084Z,4.55
2023-02-28T10:17:01.052Z,4.26
2023-02-28T10:19:50.118Z,4.04
2023-02-28T10:22:35.793Z,4.19
2023-02-28T10:25:06.969Z,3.69
2023-02-28T10:27:34.637Z,3.94
2023-02-28T10:30:03.511Z,4.34
2023-02-28T10:32:36.206Z,3.96
2023-02-28T10:35:22.861Z,5.00
2023-02-28T10:37:53.744Z,4.48
2023-02-28T10:40:20.999Z,4.01
2023-02-28T10:43:01.517Z,3.84
2023-02-28T10:45:31.362Z,4.02
2023-02-28T10:48:10.001Z,5.10
2023-02-28T10:50:43.864Z,5.08
2023-02-28T10:53:36.038Z,5.64
2023-02-28T10:56:12.018Z,5.19
2023-02-28T10:58:54.875Z,4.99
2023-02-28T11:01:41.694Z,4.73
2023-02-28T11:04:24.316Z,4.64
2023-02-28T11:06:59.831Z,4.43
2023-02-28T11:09:41.212Z,4.01
2023-02-28T11:12:21.766Z,3.76
2023-02-28T11:14:52.238Z,4.48
2023-02-28T11:17:29.072Z,5.63
2023-02-28T11:20:04.230Z,4.92
2023-02-28T11:22:34.270Z,5.51
2023-02-28T11:25:07.785Z,5.32
2023-02-28T11:27:47.607Z,4.94
2023-02-28T11:30:41.776Z,5.08
2023-02-28T11:33:29.139Z,5.30
2023-02-28T11:36:09.630Z,5.67
2023-02-28T11:38:37.530Z,5.79
2023-02-28T11:41:29.019Z,5.72
2023-02-28T11:44:05.099Z,5.65
2023-02-28T11:46:32.458Z,4.35
2023-02-28T11:49:36.796Z,5.02
2023-02-28T11:52:35.046Z,5.20
2023-02-28T11:55:17.289Z,5.35
2023-02-28T11:58:21.877Z,5.09
2023-02-28T12:01:08.480Z,5.41
2023-02-28T12:03:46.712Z,5.51
2023-02-28T12:06:27.175Z,5.56
2023-02-28T12:09:19.365Z,5.88
2023-02-28T12:11:56.703Z,5.72
2023-02-28T12:15:07.189Z,5.82
2023-02-28T12:17:34.469Z,5.45
2023-02-28T12:20:04.588Z,5.94
2023-02-28T12:22:35.138Z,6.17
2023-02-28T12:25:21.709Z,6.68
2023-02-28T12:27:51.259Z,5.91
2023-02-28T12:30:24.586Z,6.88
2023-02-28T12:33:02.048Z,6.04
2023-02-28T12:35:35.582Z,6.72
2023-02-28T12:38:18.646Z,6.69
2023-02-28T12:41:03.079Z,7.13
2023-02-28T12:43:41.495Z,6.53
2023-02-28T12:46:13.847Z,6.95
2023-02-28T12:48:43.355Z,7.29
2023-02-28T12:51:11.446Z,7.44
2023-02-28T12:54:12.917Z,6.98
2023-02-28T12:56:49.559Z,5.87
2023-02-28T12:59:26.755Z,6.61
2023-02-28T13:02:39.029Z,6.75
2023-02-28T13:05:18.753Z,7.03
2023-02-28T13:08:07.167Z,7.56
2023-02-28T13:10:50.837Z,7.87
2023-02-28T13:13:21.968Z,8.55
2023-02-28T13:16:00.764Z,7.09
2023-02-28T13:18:44.651Z,6.52
2023-02-28T13:21:25.760Z,6.67
2023-02-28T13:23:56.819Z,7.30
2023-02-28T13:26:30.978Z,7.24
2023-02-28T13:29:09.358Z,6.60
2023-02-28T13:32:17.055Z,5.76
2023-02-28T13:34:53.216Z,5.87
2023-02-28T13:37:24.070Z,6.28
2023-02-28T13:40:27.515Z,6.19
2023-02-28T13:42:55.040Z,5.82
2023-02-28T13:45:27.929Z,6.08
2023-02-28T13:48:04.202Z,6.05
2023-02-28T13:50:38.725Z,6.08
2023-02-28T13:53:15.278Z,6.23
2023-02-28T13:56:04.464Z,5.89
2023-02-28T13:58:56.609Z,6.16
2023-02-28T14:01:42.987Z,5.93
2023-02-28T14:04:56.914Z,5.33
2023-02-28T14:07:36.406Z,5.18
2023-02-28T14:10:09.141Z,5.20
2023-02-28T14:13:24.179Z,5.46
2023-02-28T14:16:01.325Z,5.25
2023-02-28T14:18:43.973Z,4.96
2023-02-28T14:21:26.524Z,4.82
2023-02-28T14:24:11.860Z,4.80
2023-02-28T14:27:20.038Z,4.76
2023-02-28T14:30:10.704Z,4.80
2023-02-28T14:32:56.591Z,4.84
2023-02-28T14:35:47.296Z,4.88
2023-02-28T14:38:27.206Z,4.87
2023-02-28T14:40:56.587Z,4.80
2023-02-28T14:43:28.478Z,4.91
2023-02-28T14:45:58.562Z,4.90
2023-02-28T14:48:26.956Z,4.83
2023-02-28T14:50:57.731Z,4.83
2023-02-28T14:53:27.530Z,4.81
2023-02-28T14:55:55.265Z,4.77
2023-02-28T14:58:31.457Z,4.86
2023-02-28T15:01:03.748Z,4.92
2023-02-28T15:03:32.368Z,4.87
2023-02-28T15:06:04.810Z,4.68
2023-02-28T15:08:36.643Z,4.68
2023-02-28T15:11:06.604Z,4.79
2023-02-28T15:13:37.843Z,4.88
2023-02-28T15:16:27.251Z,4.60
2023-02-28T15:18:57.323Z,4.50
2023-02-28T15:21:43.430Z,4.50
2023-02-28T15:24:34.391Z,4.47
2023-02-28T15:27:08.696Z,4.38
2023-02-28T15:29:45.128Z,4.40
2023-02-28T15:32:30.441Z,4.37
2023-02-28T15:34:59.257Z,4.39
2023-02-28T15:37:33.186Z,4.33
2023-02-28T15:40:14.713Z,4.45
2023-02-28T15:42:44.710Z,4.39
2023-02-28T15:45:42.528Z,4.38
2023-02-28T15:48:24.520Z,4.39
2023-02-28T15:50:55.494Z,4.29
2023-02-28T15:53:26.628Z,4.15
2023-02-28T15:55:58.157Z,3.98
2023-02-28T15:58:26.095Z,3.93
2023-02-28T16:01:20.036Z,3.83
2023-02-28T16:03:52.052Z,3.77
2023-02-28T16:06:35.828Z,3.70
2023-02-28T16:09:04.141Z,3.63
2023-02-28T16:11:32.952Z,3.60
2023-02-28T16:14:00.352Z,3.60
2023-02-28T16:16:28.045Z,3.57
2023-02-28T16:18:56.010Z,3.52
2023-02-28T16:21:23.524Z,3.43
2023-02-28T16:23:50.870Z,3.28
2023-02-28T16:26:25.919Z,3.25
2023-02-28T16:28:53.426Z,3.23
2023-02-28T16:31:21.097Z,3.19
2023-02-28T16:33:48.724Z,3.19
2023-02-28T16:36:21.300Z,3.11
2023-02-28T16:38:48.864Z,3.09
2023-02-28T16:41:24.933Z,2.99
2023-02-28T16:43:55.052Z,2.94
2023-02-28T16:46:22.736Z,2.94
2023-02-28T16:48:52.379Z,2.90
2023-02-28T16:51:20.178Z,2.79
2023-02-28T16:53:47.775Z,2.77
2023-02-28T16:56:21.078Z,2.71
2023-02-28T16:58:49.509Z,2.65
2023-02-28T17:01:22.614Z,2.58
2023-02-28T17:03:50.780Z,2.56
2023-02-28T17:06:20.990Z,2.51
2023-02-28T17:08:49.023Z,2.44
2023-02-28T17:11:16.834Z,2.33
2023-02-28T17:13:44.333Z,2.24
2023-02-28T17:16:36.615Z,2.22
2023-02-28T17:19:06.601Z,2.10
2023-02-28T17:21:35.164Z,2.00
2023-02-28T17:24:02.804Z,1.98
2023-02-28T17:26:30.288Z,1.90
2023-02-28T17:28:58.795Z,1.76
2023-02-28T17:31:27.102Z,1.62
2023-02-28T17:33:57.493Z,1.69
2023-02-28T17:36:26.958Z,1.64
2023-02-28T17:38:56.043Z,1.48
2023-02-28T17:41:23.529Z,1.61
2023-02-28T17:43:51.577Z,1.42
2023-02-28T17:46:21.753Z,1.11
2023-02-28T17:48:53.933Z,1.04
2023-02-28T17:51:25.298Z,0.94
2023-02-28T17:53:52.882Z,0.97
2023-02-28T17:56:25.460Z,0.91
2023-02-28T17:58:54.147Z,0.72
2023-02-28T18:01:23.602Z,0.75
2023-02-28T18:03:51.008Z,0.50
2023-02-28T18:06:23.838Z,0.39
2023-02-28T18:08:54.432Z,0.12
2023-02-28T18:11:24.253Z,0.05
2023-02-28T18:13:59.127Z,0.21
2023-02-28T18:16:27.446Z,0.17
2023-02-28T18:18:54.863Z,0.29
2023-02-28T18:21:22.180Z,0.28
2023-02-28T18:23:50.053Z,0.28
2023-02-28T18:26:18.800Z,-0.14
2023-02-28T18:28:47.329Z,-0.28
2023-02-28T18:31:20.167Z,-0.33
2023-02-28T18:33:51.751Z,-0.27
2023-02-28T18:36:21.567Z,-0.25
2023-02-28T18:38:50.598Z,-0.48
2023-02-28T18:41:20.692Z,-0.47
2023-02-28T18:43:48.653Z,-0.41
2023-02-28T18:46:18.504Z,-0.63
2023-02-28T18:48:46.116Z,-0.80
2023-02-28T18:51:16.511Z,-1.01
2023-02-28T18:53:44.656Z,-0.95
2023-02-28T18:56:14.155Z,-0.78
2023-02-28T18:58:41.945Z,-0.80
2023-02-28T19:01:21.037Z,-1.00
2023-02-28T19:03:49.330Z,-1.08
2023-02-28T19:06:18.367Z,-0.85
2023-02-28T19:08:46.031Z,-1.02
2023-02-28T19:11:16.190Z,-0.98
2023-02-28T19:13:44.379Z,-0.95
2023-02-28T19:16:12.929Z,-0.96
2023-02-28T19:18:40.581Z,-1.01
2023-02-28T19:21:13.526Z,-1.01
2023-02-28T19:23:42.294Z,-1.02
2023-02-28T19:26:12.756Z,-1.41
2023-02-28T19:28:40.555Z,-1.66
2023-02-28T19:31:17.336Z,-1.40
2023-02-28T19:33:44.856Z,-1.19
2023-02-28T19:36:15.909Z,-1.05
2023-02-28T19:38:44.856Z,-0.97
2023-02-28T19:41:14.789Z,-1.08
2023-02-28T19:43:42.602Z,-0.98
2023-02-28T19:46:11.857Z,-0.87
2023-02-28T19:48:39.731Z,-0.80
2023-02-28T19:51:09.674Z,-0.56
2023-02-28T19:53:38.707Z,-0.76
2023-02-28T19:56:06.454Z,-0.99
2023-02-28T19:58:34.559Z,-1.06
2023-02-28T20:01:16.590Z,-1.16
2023-02-28T20:03:47.186Z,-1.39
2023-02-28T20:06:15.063Z,-1.54
2023-02-28T20:08:42.761Z,-1.81
2023-02-28T20:11:12.795Z,-1.97
2023-02-28T20:13:40.500Z,-1.90
2023-02-28T20:16:10.571Z,-1.97
2023-02-28T20:18:41.923Z,-1.99
2023-02-28T20:21:11.037Z,-2.09
2023-02-28T20:23:39.434Z,-2.15
2023-02-28T20:26:07.205Z,-2.25
2023-02-28T20:28:34.701Z,-2.25
2023-02-28T20:31:02.318Z,-2.35
2023-02-28T20:33:29.834Z,-2.31
2023-02-28T20:36:05.335Z,-2.24
2023-02-28T20:38:32.701Z,-2.18
2023-02-28T20:41:00.899Z,-2.14
2023-02-28T20:43:28.460Z,-2.06
2023-02-28T20:45:58.470Z,-2.09
2023-02-28T20:48:26.321Z,-2.17
2023-02-28T20:50:55.994Z,-2.19
2023-02-28T20:53:24.524Z,-2.30
2023-02-28T20:56:06.873Z,-2.33
2023-02-28T20:58:37.029Z,-2.15
2023-02-28T21:01:16.005Z,-2.18
2023-02-28T21:03:43.571Z,-2.11
2023-02-28T21:06:11.339Z,-2.10
2023-02-28T21:08:39.458Z,-2.02
2023-02-28T21:11:18.415Z,-1.89
2023-02-28T21:13:46.842Z,-2.01
2023-02-28T21:16:16.315Z,-2.25
2023-02-28T21:18:44.098Z,-2.33
2023-02-28T21:21:20.204Z,-2.49
2023-02-28T21:23:48.298Z,-2.35
2023-02-28T21:26:18.756Z,-2.35
2023-02-28T21:28:57.650Z,-2.47
2023-02-28T21:31:27.174Z,-2.40
2023-02-28T21:33:55.946Z,-2.40
2023-02-28T21:36:32.655Z,-2.07
2023-02-28T21:39:12.970Z,-2.03
2023-02-28T21:41:41.626Z,-1.88
2023-02-28T21:44:10.190Z,-1.80
2023-02-28T21:46:38.579Z,-1.65
2023-02-28T21:49:05.914Z,-1.58
2023-02-28T21:51:33.269Z,-1.57
2023-02-28T21:54:01.501Z,-1.49
2023-02-28T21:56:34.628Z,-1.56
2023-02-28T21:59:02.608Z,-1.34
2023-02-28T22:01:34.737Z,-1.26
2023-02-28T22:04:03.739Z,-1.44
2023-02-28T22:06:34.013Z,-1.49
2023-02-28T22:09:05.853Z,-1.68
2023-02-28T22:11:34.601Z,-1.51
2023-02-28T22:14:02.286Z,-1.65
2023-02-28T22:16:37.732Z,-1.69
2023-02-28T22:19:12.361Z,-1.74
2023-02-28T22:21:42.035Z,-1.40
2023-02-28T22:24:10.568Z,-1.54
2023-02-28T22:26:38.122Z,-1.75
2023-02-28T22:29:05.672Z,-2.02
2023-02-28T22:31:35.227Z,-1.87
2023-02-28T22:34:08.801Z,-1.97
2023-02-28T22:36:36.701Z,-1.84
2023-02-28T22:39:04.792Z,-1.86
2023-02-28T22:41:32.595Z,-1.86
2023-02-28T22:44:02.566Z,-1.90
2023-02-28T22:46:32.230Z,-1.98
2023-02-28T22:49:01.385Z,-1.96
2023-02-28T22:51:29.324Z,-2.09
2023-02-28T22:53:58.248Z,-2.10
2023-02-28T22:56:28.537Z,-1.90
2023-02-28T22:58:57.824Z,-2.05
2023-02-28T23:01:27.129Z,-1.98
2023-02-28T23:03:54.991Z,-1.94
2023-02-28T23:06:28.567Z,-1.57
2023-02-28T23:08:58.873Z,-1.61
2023-02-28T23:11:31.059Z,-1.48
2023-02-28T23:13:59.225Z,-1.52
2023-02-28T23:16:42.257Z,-1.71
2023-02-28T23:19:16.010Z,-1.72
2023-02-28T23:21:43.960Z,-1.79
2023-02-28T23:24:13.140Z,-1.76
2023-02-28T23:26:46.304Z,-1.75
2023-02-28T23:29:14.751Z,-1.68
2023-02-28T23:31:42.330Z,-1.91
2023-02-28T23:34:10.740Z,-1.77
2023-02-28T23:36:46.170Z,-1.81
2023-02-28T23:39:17.338Z,-1.80
2023-02-28T23:41:45.125Z,-1.46
2023-02-28T23:44:16.961Z,-1.28
2023-02-28T23:46:49.056Z,-1.10
2023-02-28T23:49:19.965Z,-1.19
2023-02-28T23:51:49.341Z,-1.15
2023-02-28T23:54:17.804Z,-1.24
2023-02-28T23:56:45.643Z,-1.24
2023-02-28T23:59:13.369Z,-1.19
